Kalamazoo, MI (49001)

6:20 PM EST on December 10, 2016 (GMT -0500)
Milwood (The Best Nest) | | Change Station
Active Advisory: Winter Weather Advisory

Elev 850 ft 42.26 °N, 85.56 °W | Updated 15 seconds ago

Light Snow
Light Snow
22.8 °F
Feels Like 23 °F
N
0.0
Wind Variable Wind from WSW
Gusts 0.0 mph

Today
High -- | Low -- °F
--% Chance of Precip.
Yesterday
High -- | Low -- °F
Precip. -- in
Pressure 30.44 in
Visibility 2.0 miles
Clouds Mostly Cloudy 1800 ft
Overcast 3900 ft
Windchill 23 °F
Dew Point 6 °F
Humidity 47%
Rainfall 0.00 in
Snow Depth Not available.
8:00 AM 5:09 PM
Waxing Gibbous, 87% visible
METAR KAZO 102253Z 22009KT 2SM -SN BKN018 OVC039 M05/M08 A3040 RMK AO2 SLP308 P0000 T10501083
Pressure 30.44 in
Visibility 2.0 miles
Clouds Mostly Cloudy 1800 ft
Overcast 3900 ft
Windchill 23 °F
Dew Point 6 °F
Humidity 47%
Rainfall 0.00 in
Snow Depth Not available.
8:00 AM 5:09 PM
Waxing Gibbous, 87% visible
METAR KAZO 102253Z 22009KT 2SM -SN BKN018 OVC039 M05/M08 A3040 RMK AO2 SLP308 P0000 T10501083

10-Day Weather Forecast

Almanac

Astronomy

Dec. 10, 2016 Rise Set
Actual Time
Civil Twilight
Nautical Twilight
Astronomical Twilight
Moon
Length of Visible Light
Length of Day
Tomorrow will be .
, % of the Moon is Illuminated

Today's Extremes

State Highs State Lows

Community

WunderPhotos

Upload Photos

1,956,671 photos uploaded!

WunderBlog® & News

Nearby

Air Quality

  Air Quality AQ Index Pollutant
Not available.

Snow Depth

Station Depth Elevation

Earthquake Activity

City Distance Mag. Time & Date
Minimum magnitude displayed is 2.5.

Coastal Water Temperatures

Place Temperature

Stations

Nearby Weather Stations

Station Location Temp. Windchill Dew Point Humidity Wind Precip. Elev Updated Type
                   

Watches & Warnings

Winter Weather Advisory
Issued: 3:26 PM EST Dec. 10, 2016 – National Weather Service

... Winter Weather Advisory remains in effect from 10 PM this
evening to 4 am EST Monday...

Hazardous weather...

* snow tonight through Sunday and Sunday evening before tapering
   off early Monday morning.

* Heaviest snow will fall Sunday morning and afternoon.

* Total accumulations 5 to 9 inches. Locally higher amounts
   possible.

Impacts...

* roads will become snow and slush covered and hazardous.

* Commuting times will be increased.

Precautionary/preparedness actions...

* the Michigan Department of Transportation reminds motorists
   to adjust speeds based on the conditions... and to take it
   slow in ice and snow.

* Weather preparedness information is available on line at
   www.Ready.Gov/winter.